SCVD/ZAL METAR and TAF weather

Enter ICAO airport designator
Station Type Date Time Source
SCVD METAR 2020/08/05 16:00 UTC NOAA

SCVD 051600Z VRB07KT 250V360 9999 BKN046 11/06 Q1021


Station Type Date Time Source
SCVD Decoded METAR 2020/08/05 16:00 UTC NOAA

Valdivia, Chile (SCVD) 39-37S 073-05W
Aug 05, 2020 - 12:00 PM EDT / 2020.08.05 1600 UTC
Wind: Variable at 8 MPH (7 KT) (direction variable):0
Visibility: greater than 7 mile(s):0
Sky conditions: mostly cloudy
Temperature: 51 F (11 C)
Dew Point: 42 F (6 C)
Relative Humidity: 71%
Pressure (altimeter): 30.15 in. Hg (1021 hPa)
ob: SCVD 051600Z VRB07KT 250V360 9999 BKN046 11/06 Q1021
cycle: 16

Station Type Date Time Source
SCVD TAF 2020/08/05 12:00 UTC NOAA

TAF SCVD 051109Z 0512/0524 27005KT 9000 -RA SCT015 OVC015 TN09/0512Z TX11/0518Z
BECMG 0512/0514 9999 NSW BKN030
TEMPO 0515/0519 8000 -SHRA

Example: see airport list